Terminal Aerodrome Forecast
Issued by NWS

Home | Current Version | Previous Version | Text Only | Print | Product List | Glossary On
Versions: 1 2 3 4 5 6 7 8 9 10 11 12 13 14 15 16 17 18 19 20 21
000
FTUS42 KFFC 211558 AAD
TAFRYY
TAF AMD
KRYY 211558Z 2116/2212 VRB05KT 3SM BR VCTS BKN030CB
     FM212100 12006KT P6SM VCSH BKN025
     FM220000 12003KT 6SM BR BKN008 OVC012
     FM220600 16006KT 4SM -SHRA BKN006 OVC012 PROB30 2207/2212 2SM
      TSRA BKN006 OVC012CB=

USA.gov is the U.S. government's official web portal to all federal, state and local government web resources and services.